sensor_id;sensor_type;location;lat;lon;timestamp;temperature;humidity
76120;DHT22;64852;48.092;-1.640;2024-03-25T00:00:44;10.60;67.90
76120;DHT22;64852;48.092;-1.640;2024-03-25T00:03:09;10.50;68.20
76120;DHT22;64852;48.092;-1.640;2024-03-25T00:05:35;10.50;69.00
76120;DHT22;64852;48.092;-1.640;2024-03-25T00:08:00;10.60;69.90
76120;DHT22;64852;48.092;-1.640;2024-03-25T00:10:26;10.40;69.80
76120;DHT22;64852;48.092;-1.640;2024-03-25T00:12:51;10.40;70.80
76120;DHT22;64852;48.092;-1.640;2024-03-25T00:15:22;10.50;71.30
76120;DHT22;64852;48.092;-1.640;2024-03-25T00:17:49;10.50;71.70
76120;DHT22;64852;48.092;-1.640;2024-03-25T00:20:14;10.70;71.90
76120;DHT22;64852;48.092;-1.640;2024-03-25T00:22:40;10.30;73.00
76120;DHT22;64852;48.092;-1.640;2024-03-25T00:25:06;10.30;73.90
76120;DHT22;64852;48.092;-1.640;2024-03-25T00:27:32;10.20;73.90
76120;DHT22;64852;48.092;-1.640;2024-03-25T00:29:57;10.30;76.40
76120;DHT22;64852;48.092;-1.640;2024-03-25T00:32:23;10.20;73.30
76120;DHT22;64852;48.092;-1.640;2024-03-25T00:34:48;10.70;74.60
76120;DHT22;64852;48.092;-1.640;2024-03-25T00:37:14;11.20;76.40
76120;DHT22;64852;48.092;-1.640;2024-03-25T00:39:40;10.20;78.30
76120;DHT22;64852;48.092;-1.640;2024-03-25T00:42:05;10.00;76.20
76120;DHT22;64852;48.092;-1.640;2024-03-25T00:44:32;9.90;75.50
76120;DHT22;64852;48.092;-1.640;2024-03-25T00:46:57;11.00;76.90
76120;DHT22;64852;48.092;-1.640;2024-03-25T00:49:23;10.40;78.60
76120;DHT22;64852;48.092;-1.640;2024-03-25T00:51:48;10.10;79.10
76120;DHT22;64852;48.092;-1.640;2024-03-25T00:54:14;9.80;78.40
76120;DHT22;64852;48.092;-1.640;2024-03-25T00:56:39;9.80;79.50
76120;DHT22;64852;48.092;-1.640;2024-03-25T00:59:05;9.80;80.20
76120;DHT22;64852;48.092;-1.640;2024-03-25T01:01:32;9.80;81.50
76120;DHT22;64852;48.092;-1.640;2024-03-25T01:03:57;9.80;82.40
76120;DHT22;64852;48.092;-1.640;2024-03-25T01:06:23;9.80;83.90
76120;DHT22;64852;48.092;-1.640;2024-03-25T01:08:49;9.90;83.80
76120;DHT22;64852;48.092;-1.640;2024-03-25T01:11:14;10.10;84.10
76120;DHT22;64852;48.092;-1.640;2024-03-25T01:13:40;9.80;87.20
76120;DHT22;64852;48.092;-1.640;2024-03-25T01:16:07;10.60;84.10
76120;DHT22;64852;48.092;-1.640;2024-03-25T01:18:32;9.70;85.60
76120;DHT22;64852;48.092;-1.640;2024-03-25T01:20:58;10.40;86.70
76120;DHT22;64852;48.092;-1.640;2024-03-25T01:23:24;9.90;85.00
76120;DHT22;64852;48.092;-1.640;2024-03-25T01:25:49;10.10;85.20
76120;DHT22;64852;48.092;-1.640;2024-03-25T01:28:15;9.70;86.90
76120;DHT22;64852;48.092;-1.640;2024-03-25T01:30:40;10.20;88.50
76120;DHT22;64852;48.092;-1.640;2024-03-25T01:33:06;10.80;88.60
76120;DHT22;64852;48.092;-1.640;2024-03-25T01:35:31;9.70;88.00
76120;DHT22;64852;48.092;-1.640;2024-03-25T01:37:57;9.60;88.50
76120;DHT22;64852;48.092;-1.640;2024-03-25T01:40:23;9.70;89.00
76120;DHT22;64852;48.092;-1.640;2024-03-25T01:42:55;9.60;89.40
76120;DHT22;64852;48.092;-1.640;2024-03-25T01:45:21;9.60;88.00
76120;DHT22;64852;48.092;-1.640;2024-03-25T01:47:46;9.60;90.20
76120;DHT22;64852;48.092;-1.640;2024-03-25T01:50:12;9.60;90.60
76120;DHT22;64852;48.092;-1.640;2024-03-25T01:52:38;9.70;90.80
76120;DHT22;64852;48.092;-1.640;2024-03-25T01:55:04;10.40;90.30
76120;DHT22;64852;48.092;-1.640;2024-03-25T01:57:30;9.50;90.20
76120;DHT22;64852;48.092;-1.640;2024-03-25T01:59:56;9.60;91.20
76120;DHT22;64852;48.092;-1.640;2024-03-25T02:02:22;9.80;93.70
76120;DHT22;64852;48.092;-1.640;2024-03-25T02:04:47;10.60;91.70
76120;DHT22;64852;48.092;-1.640;2024-03-25T02:07:13;10.50;92.90
76120;DHT22;64852;48.092;-1.640;2024-03-25T02:09:39;10.10;92.50
76120;DHT22;64852;48.092;-1.640;2024-03-25T02:12:04;10.10;92.90
76120;DHT22;64852;48.092;-1.640;2024-03-25T02:14:30;9.40;92.80
76120;DHT22;64852;48.092;-1.640;2024-03-25T02:16:56;9.90;93.20
76120;DHT22;64852;48.092;-1.640;2024-03-25T02:19:21;9.30;93.00
76120;DHT22;64852;48.092;-1.640;2024-03-25T02:21:48;9.40;93.60
76120;DHT22;64852;48.092;-1.640;2024-03-25T02:24:14;9.80;93.80
76120;DHT22;64852;48.092;-1.640;2024-03-25T02:26:40;9.70;93.60
76120;DHT22;64852;48.092;-1.640;2024-03-25T02:29:09;9.10;96.10
76120;DHT22;64852;48.092;-1.640;2024-03-25T02:31:34;9.20;96.10
76120;DHT22;64852;48.092;-1.640;2024-03-25T02:33:59;9.50;97.40
76120;DHT22;64852;48.092;-1.640;2024-03-25T02:36:25;9.20;96.40
76120;DHT22;64852;48.092;-1.640;2024-03-25T02:38:50;9.80;97.70
76120;DHT22;64852;48.092;-1.640;2024-03-25T02:41:16;9.10;99.90
76120;DHT22;64852;48.092;-1.640;2024-03-25T02:43:42;9.00;98.80
76120;DHT22;64852;48.092;-1.640;2024-03-25T02:46:07;9.00;98.10
76120;DHT22;64852;48.092;-1.640;2024-03-25T02:48:33;9.20;98.40
76120;DHT22;64852;48.092;-1.640;2024-03-25T02:50:58;9.40;99.90
76120;DHT22;64852;48.092;-1.640;2024-03-25T02:53:24;9.00;99.90
76120;DHT22;64852;48.092;-1.640;2024-03-25T02:55:49;8.90;99.90
76120;DHT22;64852;48.092;-1.640;2024-03-25T02:58:15;9.30;99.90
76120;DHT22;64852;48.092;-1.640;2024-03-25T03:00:40;8.90;99.90
76120;DHT22;64852;48.092;-1.640;2024-03-25T03:03:06;9.60;99.90
76120;DHT22;64852;48.092;-1.640;2024-03-25T03:05:31;8.80;99.90
76120;DHT22;64852;48.092;-1.640;2024-03-25T03:07:58;9.70;99.90
76120;DHT22;64852;48.092;-1.640;2024-03-25T03:10:23;8.90;99.90
76120;DHT22;64852;48.092;-1.640;2024-03-25T03:12:49;9.40;99.90
76120;DHT22;64852;48.092;-1.640;2024-03-25T03:15:14;9.10;99.90
76120;DHT22;64852;48.092;-1.640;2024-03-25T03:17:40;8.80;99.90
76120;DHT22;64852;48.092;-1.640;2024-03-25T03:20:06;8.80;99.90
76120;DHT22;64852;48.092;-1.640;2024-03-25T03:22:31;8.90;99.90
76120;DHT22;64852;48.092;-1.640;2024-03-25T03:24:57;9.50;99.90
76120;DHT22;64852;48.092;-1.640;2024-03-25T03:27:23;8.90;99.90
76120;DHT22;64852;48.092;-1.640;2024-03-25T03:29:49;9.00;99.90
76120;DHT22;64852;48.092;-1.640;2024-03-25T03:32:14;9.00;99.90
76120;DHT22;64852;48.092;-1.640;2024-03-25T03:34:40;9.00;99.90
76120;DHT22;64852;48.092;-1.640;2024-03-25T03:37:05;8.90;99.90
76120;DHT22;64852;48.092;-1.640;2024-03-25T03:39:31;9.00;99.90
76120;DHT22;64852;48.092;-1.640;2024-03-25T03:41:56;8.90;99.90
76120;DHT22;64852;48.092;-1.640;2024-03-25T03:44:22;8.90;99.90
76120;DHT22;64852;48.092;-1.640;2024-03-25T03:46:47;9.50;99.90
76120;DHT22;64852;48.092;-1.640;2024-03-25T03:49:13;9.00;99.90
76120;DHT22;64852;48.092;-1.640;2024-03-25T03:51:38;8.90;99.90
76120;DHT22;64852;48.092;-1.640;2024-03-25T03:54:04;9.00;99.90
76120;DHT22;64852;48.092;-1.640;2024-03-25T03:56:29;9.60;99.90
76120;DHT22;64852;48.092;-1.640;2024-03-25T03:58:55;9.50;99.90
76120;DHT22;64852;48.092;-1.640;2024-03-25T04:01:20;9.50;99.90
76120;DHT22;64852;48.092;-1.640;2024-03-25T04:03:46;9.00;99.90
76120;DHT22;64852;48.092;-1.640;2024-03-25T04:06:11;9.10;99.90
76120;DHT22;64852;48.092;-1.640;2024-03-25T04:08:40;9.00;99.90
76120;DHT22;64852;48.092;-1.640;2024-03-25T04:11:06;9.10;99.90
76120;DHT22;64852;48.092;-1.640;2024-03-25T04:13:32;9.70;99.90
76120;DHT22;64852;48.092;-1.640;2024-03-25T04:16:05;9.00;99.90
76120;DHT22;64852;48.092;-1.640;2024-03-25T04:18:31;8.90;99.90
76120;DHT22;64852;48.092;-1.640;2024-03-25T04:20:57;9.50;99.90
76120;DHT22;64852;48.092;-1.640;2024-03-25T04:23:23;8.90;99.90
76120;DHT22;64852;48.092;-1.640;2024-03-25T04:25:49;8.80;99.90
76120;DHT22;64852;48.092;-1.640;2024-03-25T04:28:15;9.30;99.90
76120;DHT22;64852;48.092;-1.640;2024-03-25T04:30:40;9.50;99.90
76120;DHT22;64852;48.092;-1.640;2024-03-25T04:33:06;9.00;99.90
76120;DHT22;64852;48.092;-1.640;2024-03-25T04:35:32;9.80;99.90
76120;DHT22;64852;48.092;-1.640;2024-03-25T04:37:57;9.80;99.90
76120;DHT22;64852;48.092;-1.640;2024-03-25T04:40:23;9.60;99.90
76120;DHT22;64852;48.092;-1.640;2024-03-25T04:42:48;9.80;99.90
76120;DHT22;64852;48.092;-1.640;2024-03-25T04:45:14;9.00;99.90
76120;DHT22;64852;48.092;-1.640;2024-03-25T04:47:40;8.90;99.90
76120;DHT22;64852;48.092;-1.640;2024-03-25T04:50:05;9.40;99.90
76120;DHT22;64852;48.092;-1.640;2024-03-25T04:52:31;8.90;99.90
76120;DHT22;64852;48.092;-1.640;2024-03-25T04:54:56;9.00;99.90
76120;DHT22;64852;48.092;-1.640;2024-03-25T04:57:22;9.30;99.90
76120;DHT22;64852;48.092;-1.640;2024-03-25T04:59:48;9.40;99.90
76120;DHT22;64852;48.092;-1.640;2024-03-25T05:02:13;9.00;99.90
76120;DHT22;64852;48.092;-1.640;2024-03-25T05:04:39;9.00;99.90
76120;DHT22;64852;48.092;-1.640;2024-03-25T05:07:04;8.90;99.90
76120;DHT22;64852;48.092;-1.640;2024-03-25T05:09:30;9.50;99.90
76120;DHT22;64852;48.092;-1.640;2024-03-25T05:11:55;8.90;99.90
76120;DHT22;64852;48.092;-1.640;2024-03-25T05:14:21;9.60;99.90
76120;DHT22;64852;48.092;-1.640;2024-03-25T05:16:46;8.60;99.90
76120;DHT22;64852;48.092;-1.640;2024-03-25T05:19:12;8.60;99.90
76120;DHT22;64852;48.092;-1.640;2024-03-25T05:21:37;8.50;99.90
76120;DHT22;64852;48.092;-1.640;2024-03-25T05:24:03;9.40;99.90
76120;DHT22;64852;48.092;-1.640;2024-03-25T05:26:28;8.50;99.90
76120;DHT22;64852;48.092;-1.640;2024-03-25T05:28:54;8.80;99.90
76120;DHT22;64852;48.092;-1.640;2024-03-25T05:31:20;8.60;99.90
76120;DHT22;64852;48.092;-1.640;2024-03-25T05:33:45;8.90;99.90
76120;DHT22;64852;48.092;-1.640;2024-03-25T05:36:11;9.00;99.90
76120;DHT22;64852;48.092;-1.640;2024-03-25T05:38:36;8.50;99.90
76120;DHT22;64852;48.092;-1.640;2024-03-25T05:41:02;8.50;99.90
76120;DHT22;64852;48.092;-1.640;2024-03-25T05:43:28;8.40;99.90
76120;DHT22;64852;48.092;-1.640;2024-03-25T05:45:53;8.60;99.90
76120;DHT22;64852;48.092;-1.640;2024-03-25T05:48:19;9.00;99.90
76120;DHT22;64852;48.092;-1.640;2024-03-25T05:50:45;9.20;99.90
76120;DHT22;64852;48.092;-1.640;2024-03-25T05:53:10;8.90;99.90
76120;DHT22;64852;48.092;-1.640;2024-03-25T05:55:36;8.40;99.90
76120;DHT22;64852;48.092;-1.640;2024-03-25T05:58:01;8.40;99.90
76120;DHT22;64852;48.092;-1.640;2024-03-25T06:00:28;8.40;99.90
76120;DHT22;64852;48.092;-1.640;2024-03-25T06:02:54;8.30;99.90
76120;DHT22;64852;48.092;-1.640;2024-03-25T06:05:19;8.90;99.90
76120;DHT22;64852;48.092;-1.640;2024-03-25T06:07:45;8.90;99.90
76120;DHT22;64852;48.092;-1.640;2024-03-25T06:10:10;8.20;99.90
76120;DHT22;64852;48.092;-1.640;2024-03-25T06:12:36;8.30;99.90
76120;DHT22;64852;48.092;-1.640;2024-03-25T06:15:01;9.20;99.90
76120;DHT22;64852;48.092;-1.640;2024-03-25T06:17:27;8.10;99.90
76120;DHT22;64852;48.092;-1.640;2024-03-25T06:19:52;9.00;99.90
76120;DHT22;64852;48.092;-1.640;2024-03-25T06:22:18;8.20;99.90
76120;DHT22;64852;48.092;-1.640;2024-03-25T06:24:43;8.70;99.90
76120;DHT22;64852;48.092;-1.640;2024-03-25T06:27:09;8.40;99.90
76120;DHT22;64852;48.092;-1.640;2024-03-25T06:29:35;8.80;99.90
76120;DHT22;64852;48.092;-1.640;2024-03-25T06:32:01;9.20;99.90
76120;DHT22;64852;48.092;-1.640;2024-03-25T06:34:45;8.20;99.90
76120;DHT22;64852;48.092;-1.640;2024-03-25T06:37:11;8.70;99.90
76120;DHT22;64852;48.092;-1.640;2024-03-25T06:39:36;9.20;99.90
76120;DHT22;64852;48.092;-1.640;2024-03-25T06:42:02;8.20;99.90
76120;DHT22;64852;48.092;-1.640;2024-03-25T06:44:27;8.10;99.90
76120;DHT22;64852;48.092;-1.640;2024-03-25T06:46:53;8.10;99.90
76120;DHT22;64852;48.092;-1.640;2024-03-25T06:49:18;8.10;99.90
76120;DHT22;64852;48.092;-1.640;2024-03-25T06:51:44;8.20;99.90
76120;DHT22;64852;48.092;-1.640;2024-03-25T06:54:09;8.30;99.90
76120;DHT22;64852;48.092;-1.640;2024-03-25T06:56:34;8.30;99.90
76120;DHT22;64852;48.092;-1.640;2024-03-25T06:59:00;8.60;99.90
76120;DHT22;64852;48.092;-1.640;2024-03-25T07:01:25;8.40;99.90
76120;DHT22;64852;48.092;-1.640;2024-03-25T07:03:51;8.40;99.90
76120;DHT22;64852;48.092;-1.640;2024-03-25T07:06:18;8.90;99.90
76120;DHT22;64852;48.092;-1.640;2024-03-25T07:08:43;8.80;99.90
76120;DHT22;64852;48.092;-1.640;2024-03-25T07:11:09;8.40;99.90
76120;DHT22;64852;48.092;-1.640;2024-03-25T07:13:34;9.00;99.90
76120;DHT22;64852;48.092;-1.640;2024-03-25T07:16:01;9.20;99.90
76120;DHT22;64852;48.092;-1.640;2024-03-25T07:18:26;8.60;99.90
76120;DHT22;64852;48.092;-1.640;2024-03-25T07:20:52;9.50;99.90
76120;DHT22;64852;48.092;-1.640;2024-03-25T07:23:17;8.90;99.90
76120;DHT22;64852;48.092;-1.640;2024-03-25T07:25:43;9.40;99.90
76120;DHT22;64852;48.092;-1.640;2024-03-25T07:28:09;8.70;99.90
76120;DHT22;64852;48.092;-1.640;2024-03-25T07:30:34;9.70;99.90
76120;DHT22;64852;48.092;-1.640;2024-03-25T07:33:00;9.40;99.90
76120;DHT22;64852;48.092;-1.640;2024-03-25T07:35:25;8.80;99.90
76120;DHT22;64852;48.092;-1.640;2024-03-25T07:37:51;8.80;99.90
76120;DHT22;64852;48.092;-1.640;2024-03-25T07:40:17;9.20;99.90
76120;DHT22;64852;48.092;-1.640;2024-03-25T07:42:42;8.80;99.90
76120;DHT22;64852;48.092;-1.640;2024-03-25T07:45:08;8.80;99.90
76120;DHT22;64852;48.092;-1.640;2024-03-25T07:47:33;8.70;99.90
76120;DHT22;64852;48.092;-1.640;2024-03-25T07:49:59;8.80;99.90
76120;DHT22;64852;48.092;-1.640;2024-03-25T07:52:25;9.30;99.90
76120;DHT22;64852;48.092;-1.640;2024-03-25T07:54:51;9.50;99.90
76120;DHT22;64852;48.092;-1.640;2024-03-25T07:57:17;9.90;99.90
76120;DHT22;64852;48.092;-1.640;2024-03-25T07:59:42;9.00;99.90
76120;DHT22;64852;48.092;-1.640;2024-03-25T08:02:08;8.90;99.90
76120;DHT22;64852;48.092;-1.640;2024-03-25T08:04:33;9.00;99.90
76120;DHT22;64852;48.092;-1.640;2024-03-25T08:06:59;8.90;99.90
76120;DHT22;64852;48.092;-1.640;2024-03-25T08:09:24;9.70;99.90
76120;DHT22;64852;48.092;-1.640;2024-03-25T08:11:50;9.10;99.90
76120;DHT22;64852;48.092;-1.640;2024-03-25T08:14:15;9.60;99.90
76120;DHT22;64852;48.092;-1.640;2024-03-25T08:16:41;10.10;99.90
76120;DHT22;64852;48.092;-1.640;2024-03-25T08:19:06;9.10;99.90
76120;DHT22;64852;48.092;-1.640;2024-03-25T08:21:32;9.70;99.90
76120;DHT22;64852;48.092;-1.640;2024-03-25T08:23:57;9.20;99.90
76120;DHT22;64852;48.092;-1.640;2024-03-25T08:26:23;9.10;99.90
76120;DHT22;64852;48.092;-1.640;2024-03-25T08:28:48;9.20;99.90
76120;DHT22;64852;48.092;-1.640;2024-03-25T08:31:17;9.70;99.90
76120;DHT22;64852;48.092;-1.640;2024-03-25T08:33:42;9.20;99.90
76120;DHT22;64852;48.092;-1.640;2024-03-25T08:36:07;10.30;99.90
76120;DHT22;64852;48.092;-1.640;2024-03-25T08:38:33;10.00;99.90
76120;DHT22;64852;48.092;-1.640;2024-03-25T08:40:59;9.50;99.90
76120;DHT22;64852;48.092;-1.640;2024-03-25T08:43:24;10.30;99.90
76120;DHT22;64852;48.092;-1.640;2024-03-25T08:45:50;10.40;99.90
76120;DHT22;64852;48.092;-1.640;2024-03-25T08:48:15;9.70;99.90
76120;DHT22;64852;48.092;-1.640;2024-03-25T08:50:40;9.80;99.90
76120;DHT22;64852;48.092;-1.640;2024-03-25T08:53:06;9.80;99.90
76120;DHT22;64852;48.092;-1.640;2024-03-25T08:55:31;9.90;99.90
76120;DHT22;64852;48.092;-1.640;2024-03-25T08:57:57;10.00;99.90
76120;DHT22;64852;48.092;-1.640;2024-03-25T09:00:26;10.60;99.90
76120;DHT22;64852;48.092;-1.640;2024-03-25T09:02:52;10.20;99.90
76120;DHT22;64852;48.092;-1.640;2024-03-25T09:05:18;10.70;99.90
76120;DHT22;64852;48.092;-1.640;2024-03-25T09:07:44;10.50;99.90
76120;DHT22;64852;48.092;-1.640;2024-03-25T09:10:10;10.60;99.90
76120;DHT22;64852;48.092;-1.640;2024-03-25T09:12:55;10.70;99.90
76120;DHT22;64852;48.092;-1.640;2024-03-25T09:15:20;10.70;99.90
76120;DHT22;64852;48.092;-1.640;2024-03-25T09:17:46;10.70;99.90
76120;DHT22;64852;48.092;-1.640;2024-03-25T09:20:11;10.90;99.90
76120;DHT22;64852;48.092;-1.640;2024-03-25T09:22:42;10.80;99.90
76120;DHT22;64852;48.092;-1.640;2024-03-25T09:25:08;10.90;99.90
76120;DHT22;64852;48.092;-1.640;2024-03-25T09:27:33;11.00;99.90
76120;DHT22;64852;48.092;-1.640;2024-03-25T09:29:59;11.20;99.90
76120;DHT22;64852;48.092;-1.640;2024-03-25T09:32:24;11.30;99.90
76120;DHT22;64852;48.092;-1.640;2024-03-25T09:34:51;11.80;99.90
76120;DHT22;64852;48.092;-1.640;2024-03-25T09:37:17;11.80;99.90
76120;DHT22;64852;48.092;-1.640;2024-03-25T09:39:42;11.60;99.90
76120;DHT22;64852;48.092;-1.640;2024-03-25T09:42:08;11.60;99.90
76120;DHT22;64852;48.092;-1.640;2024-03-25T09:44:37;11.70;99.90
76120;DHT22;64852;48.092;-1.640;2024-03-25T09:47:02;12.00;99.90
76120;DHT22;64852;48.092;-1.640;2024-03-25T09:49:28;11.90;99.90
76120;DHT22;64852;48.092;-1.640;2024-03-25T09:51:54;12.00;99.90
76120;DHT22;64852;48.092;-1.640;2024-03-25T09:54:19;12.10;99.90
76120;DHT22;64852;48.092;-1.640;2024-03-25T09:56:45;12.10;99.90
76120;DHT22;64852;48.092;-1.640;2024-03-25T09:59:11;12.20;99.90
76120;DHT22;64852;48.092;-1.640;2024-03-25T10:01:37;12.50;99.90
76120;DHT22;64852;48.092;-1.640;2024-03-25T10:04:03;12.40;99.90
76120;DHT22;64852;48.092;-1.640;2024-03-25T10:06:28;12.50;99.90
76120;DHT22;64852;48.092;-1.640;2024-03-25T10:08:54;12.50;99.90
76120;DHT22;64852;48.092;-1.640;2024-03-25T10:11:22;12.70;99.90
76120;DHT22;64852;48.092;-1.640;2024-03-25T10:13:48;12.70;99.90
76120;DHT22;64852;48.092;-1.640;2024-03-25T10:16:13;12.80;99.90
76120;DHT22;64852;48.092;-1.640;2024-03-25T10:18:39;12.80;99.90
76120;DHT22;64852;48.092;-1.640;2024-03-25T10:21:08;12.90;99.90
76120;DHT22;64852;48.092;-1.640;2024-03-25T10:23:34;13.20;99.90
76120;DHT22;64852;48.092;-1.640;2024-03-25T10:26:05;13.20;99.90
76120;DHT22;64852;48.092;-1.640;2024-03-25T10:28:31;13.30;99.90
76120;DHT22;64852;48.092;-1.640;2024-03-25T10:31:02;13.30;99.90
76120;DHT22;64852;48.092;-1.640;2024-03-25T10:33:29;13.40;99.90
76120;DHT22;64852;48.092;-1.640;2024-03-25T10:35:54;13.40;99.90
76120;DHT22;64852;48.092;-1.640;2024-03-25T10:38:22;13.50;99.90
76120;DHT22;64852;48.092;-1.640;2024-03-25T10:40:48;13.60;99.90
76120;DHT22;64852;48.092;-1.640;2024-03-25T10:43:17;13.60;99.90
76120;DHT22;64852;48.092;-1.640;2024-03-25T10:45:45;13.60;99.90
76120;DHT22;64852;48.092;-1.640;2024-03-25T10:48:21;13.70;99.90
76120;DHT22;64852;48.092;-1.640;2024-03-25T10:50:51;13.90;99.90
76120;DHT22;64852;48.092;-1.640;2024-03-25T10:53:17;14.20;99.90
76120;DHT22;64852;48.092;-1.640;2024-03-25T10:55:44;14.20;95.30
76120;DHT22;64852;48.092;-1.640;2024-03-25T10:58:13;14.30;99.90
76120;DHT22;64852;48.092;-1.640;2024-03-25T11:00:40;14.30;91.90
76120;DHT22;64852;48.092;-1.640;2024-03-25T11:03:07;14.30;95.80
76120;DHT22;64852;48.092;-1.640;2024-03-25T11:05:34;14.40;96.80
76120;DHT22;64852;48.092;-1.640;2024-03-25T11:08:13;14.60;94.40
76120;DHT22;64852;48.092;-1.640;2024-03-25T11:10:42;14.80;99.90
76120;DHT22;64852;48.092;-1.640;2024-03-25T11:13:11;14.90;98.30
76120;DHT22;64852;48.092;-1.640;2024-03-25T11:15:40;15.10;96.20
76120;DHT22;64852;48.092;-1.640;2024-03-25T11:18:15;15.20;92.10
76120;DHT22;64852;48.092;-1.640;2024-03-25T11:20:41;15.10;95.00
76120;DHT22;64852;48.092;-1.640;2024-03-25T11:23:13;15.20;92.00
76120;DHT22;64852;48.092;-1.640;2024-03-25T11:25:39;15.30;88.40
76120;DHT22;64852;48.092;-1.640;2024-03-25T11:28:05;15.60;98.10
76120;DHT22;64852;48.092;-1.640;2024-03-25T11:30:31;15.50;83.40
76120;DHT22;64852;48.092;-1.640;2024-03-25T11:32:57;15.50;87.60
76120;DHT22;64852;48.092;-1.640;2024-03-25T11:35:23;15.50;92.70
76120;DHT22;64852;48.092;-1.640;2024-03-25T11:37:49;15.50;89.70
76120;DHT22;64852;48.092;-1.640;2024-03-25T11:40:18;15.40;82.90
76120;DHT22;64852;48.092;-1.640;2024-03-25T11:42:44;15.60;91.10
76120;DHT22;64852;48.092;-1.640;2024-03-25T11:45:16;15.70;82.30
76120;DHT22;64852;48.092;-1.640;2024-03-25T11:47:46;15.70;77.30
76120;DHT22;64852;48.092;-1.640;2024-03-25T11:50:20;15.70;79.30
76120;DHT22;64852;48.092;-1.640;2024-03-25T11:52:46;15.80;85.10
76120;DHT22;64852;48.092;-1.640;2024-03-25T11:55:18;16.00;91.10
76120;DHT22;64852;48.092;-1.640;2024-03-25T11:57:46;15.90;75.20
76120;DHT22;64852;48.092;-1.640;2024-03-25T12:00:11;15.90;74.30
76120;DHT22;64852;48.092;-1.640;2024-03-25T12:02:43;15.90;77.10
76120;DHT22;64852;48.092;-1.640;2024-03-25T12:05:08;15.80;76.80
76120;DHT22;64852;48.092;-1.640;2024-03-25T12:07:34;15.60;73.60
76120;DHT22;64852;48.092;-1.640;2024-03-25T12:10:01;15.70;77.80
76120;DHT22;64852;48.092;-1.640;2024-03-25T12:12:45;15.70;77.40
76120;DHT22;64852;48.092;-1.640;2024-03-25T12:15:10;15.80;76.30
76120;DHT22;64852;48.092;-1.640;2024-03-25T12:17:36;15.70;74.40
76120;DHT22;64852;48.092;-1.640;2024-03-25T12:20:02;15.80;77.60
76120;DHT22;64852;48.092;-1.640;2024-03-25T12:22:30;16.10;84.10
76120;DHT22;64852;48.092;-1.640;2024-03-25T12:24:57;16.30;77.70
76120;DHT22;64852;48.092;-1.640;2024-03-25T12:27:22;16.70;79.60
76120;DHT22;64852;48.092;-1.640;2024-03-25T12:29:56;16.80;72.30
76120;DHT22;64852;48.092;-1.640;2024-03-25T12:32:22;16.90;71.20
76120;DHT22;64852;48.092;-1.640;2024-03-25T12:34:55;17.00;77.30
76120;DHT22;64852;48.092;-1.640;2024-03-25T12:37:20;17.30;68.90
76120;DHT22;64852;48.092;-1.640;2024-03-25T12:39:49;17.20;71.60
76120;DHT22;64852;48.092;-1.640;2024-03-25T12:42:14;17.10;70.60
76120;DHT22;64852;48.092;-1.640;2024-03-25T12:44:40;16.90;67.10
76120;DHT22;64852;48.092;-1.640;2024-03-25T12:47:06;17.10;73.00
76120;DHT22;64852;48.092;-1.640;2024-03-25T12:49:31;17.20;67.00
76120;DHT22;64852;48.092;-1.640;2024-03-25T12:51:57;17.20;69.30
76120;DHT22;64852;48.092;-1.640;2024-03-25T12:54:22;17.00;68.20
76120;DHT22;64852;48.092;-1.640;2024-03-25T12:56:48;17.00;67.50
76120;DHT22;64852;48.092;-1.640;2024-03-25T12:59:14;17.10;70.70
76120;DHT22;64852;48.092;-1.640;2024-03-25T13:01:39;17.10;65.00
76120;DHT22;64852;48.092;-1.640;2024-03-25T13:04:06;17.10;68.30
76120;DHT22;64852;48.092;-1.640;2024-03-25T13:06:31;17.40;70.50
76120;DHT22;64852;48.092;-1.640;2024-03-25T13:08:57;17.20;66.80
76120;DHT22;64852;48.092;-1.640;2024-03-25T13:11:22;17.20;67.50
76120;DHT22;64852;48.092;-1.640;2024-03-25T13:13:49;16.90;63.50
76120;DHT22;64852;48.092;-1.640;2024-03-25T13:16:15;16.70;65.30
76120;DHT22;64852;48.092;-1.640;2024-03-25T13:18:40;16.50;65.30
76120;DHT22;64852;48.092;-1.640;2024-03-25T13:21:06;16.20;64.80
76120;DHT22;64852;48.092;-1.640;2024-03-25T13:23:31;16.00;65.90
76120;DHT22;64852;48.092;-1.640;2024-03-25T13:25:57;15.70;66.60
76120;DHT22;64852;48.092;-1.640;2024-03-25T13:28:22;15.60;68.90
76120;DHT22;64852;48.092;-1.640;2024-03-25T13:30:48;15.70;72.70
76120;DHT22;64852;48.092;-1.640;2024-03-25T13:33:13;15.80;73.40
76120;DHT22;64852;48.092;-1.640;2024-03-25T13:35:39;16.00;76.60
76120;DHT22;64852;48.092;-1.640;2024-03-25T13:38:04;16.10;73.30
76120;DHT22;64852;48.092;-1.640;2024-03-25T13:40:30;16.20;72.70
76120;DHT22;64852;48.092;-1.640;2024-03-25T13:42:55;16.40;73.70
76120;DHT22;64852;48.092;-1.640;2024-03-25T13:45:21;16.70;76.60
76120;DHT22;64852;48.092;-1.640;2024-03-25T13:47:46;17.20;87.20
76120;DHT22;64852;48.092;-1.640;2024-03-25T13:50:12;18.10;91.00
76120;DHT22;64852;48.092;-1.640;2024-03-25T13:52:37;18.90;92.10
76120;DHT22;64852;48.092;-1.640;2024-03-25T13:55:03;19.20;67.80
76120;DHT22;64852;48.092;-1.640;2024-03-25T13:57:28;18.90;62.30
76120;DHT22;64852;48.092;-1.640;2024-03-25T13:59:54;18.70;64.00
76120;DHT22;64852;48.092;-1.640;2024-03-25T14:02:19;18.60;61.10
76120;DHT22;64852;48.092;-1.640;2024-03-25T14:04:45;18.50;59.90
76120;DHT22;64852;48.092;-1.640;2024-03-25T14:07:13;18.20;61.80
76120;DHT22;64852;48.092;-1.640;2024-03-25T14:09:39;18.20;64.70
76120;DHT22;64852;48.092;-1.640;2024-03-25T14:12:05;18.50;65.70
76120;DHT22;64852;48.092;-1.640;2024-03-25T14:14:31;18.60;66.90
76120;DHT22;64852;48.092;-1.640;2024-03-25T14:16:56;19.00;65.80
76120;DHT22;64852;48.092;-1.640;2024-03-25T14:19:22;18.80;59.90
76120;DHT22;64852;48.092;-1.640;2024-03-25T14:21:48;18.70;60.40
76120;DHT22;64852;48.092;-1.640;2024-03-25T14:24:13;18.40;60.00
76120;DHT22;64852;48.092;-1.640;2024-03-25T14:26:39;18.00;58.10
76120;DHT22;64852;48.092;-1.640;2024-03-25T14:29:04;17.80;58.30
76120;DHT22;64852;48.092;-1.640;2024-03-25T14:31:30;17.70;63.80
76120;DHT22;64852;48.092;-1.640;2024-03-25T14:33:55;18.00;63.70
76120;DHT22;64852;48.092;-1.640;2024-03-25T14:36:21;18.20;61.90
76120;DHT22;64852;48.092;-1.640;2024-03-25T14:38:48;18.20;62.80
76120;DHT22;64852;48.092;-1.640;2024-03-25T14:41:18;18.20;58.60
76120;DHT22;64852;48.092;-1.640;2024-03-25T14:43:43;17.80;58.90
76120;DHT22;64852;48.092;-1.640;2024-03-25T14:46:09;17.70;60.10
76120;DHT22;64852;48.092;-1.640;2024-03-25T14:48:34;17.60;60.40
76120;DHT22;64852;48.092;-1.640;2024-03-25T14:51:00;17.50;61.10
76120;DHT22;64852;48.092;-1.640;2024-03-25T14:53:25;17.30;60.40
76120;DHT22;64852;48.092;-1.640;2024-03-25T14:55:51;17.40;60.70
76120;DHT22;64852;48.092;-1.640;2024-03-25T14:58:17;17.80;64.30
76120;DHT22;64852;48.092;-1.640;2024-03-25T15:00:42;18.20;63.90
76120;DHT22;64852;48.092;-1.640;2024-03-25T15:03:08;18.30;63.50
76120;DHT22;64852;48.092;-1.640;2024-03-25T15:05:35;18.30;59.50
76120;DHT22;64852;48.092;-1.640;2024-03-25T15:08:00;18.10;60.80
76120;DHT22;64852;48.092;-1.640;2024-03-25T15:10:26;18.00;60.40
76120;DHT22;64852;48.092;-1.640;2024-03-25T15:12:51;17.80;61.00
76120;DHT22;64852;48.092;-1.640;2024-03-25T15:15:17;17.70;58.80